Orbital elements of FENGYUN 1C DEB
| Launched | 9 May 1999 |
| Flight ended | – |
| Launch site | Taiyuan Space Center, PRC |
| Owner | People's Republic of China |
| NORAD ID | 31031 |
| Date fetched |
Epoch osculation |
Inc. [°] |
Ecc. | RA asc node [hr] |
Arg Peri. [°] |
Mean anom [°] |
Mean motion [rev/day] |
Abs. mag |
| Date fetched |
Epoch osculation |
Inc. [°] |
Ecc. | RA asc node [hr] |
Arg Peri. [°] |
Mean anom [°] |
Mean motion [rev/day] |
Abs. mag |
| 2026 May 03 17:57 | 2026 Apr 30 06:53:43 | 99.0754 | 0.00283 | 3.0748 | 149.9917 | 5.5056 | 14.21261 | – |
| 2026 May 02 17:57 | 2026 Apr 30 06:53:43 | 99.0754 | 0.00283 | 3.0748 | 149.9917 | 5.5056 | 14.21261 | – |
| 2026 May 01 17:56 | 2026 Apr 30 06:53:43 | 99.0754 | 0.00283 | 3.0748 | 149.9917 | 5.5056 | 14.21261 | – |
| 2026 Apr 30 17:56 | 2026 Apr 30 06:53:43 | 99.0754 | 0.00283 | 3.0748 | 149.9917 | 5.5056 | 14.21261 | – |
| 2026 Apr 29 17:57 | 2026 Apr 22 07:50:06 | 99.0756 | 0.00279 | 2.5296 | 172.1928 | 5.5056 | 14.21261 | – |
| 2026 Apr 28 17:56 | 2026 Apr 22 07:50:06 | 99.0756 | 0.00279 | 2.5296 | 172.1928 | 5.5056 | 14.21261 | – |
| 2026 Apr 27 17:58 | 2026 Apr 22 07:50:06 | 99.0756 | 0.00279 | 2.5296 | 172.1928 | 5.5056 | 14.21261 | – |
| 2026 Apr 26 17:58 | 2026 Apr 22 07:50:06 | 99.0756 | 0.00279 | 2.5296 | 172.1928 | 5.5056 | 14.21261 | – |
| 2026 Apr 25 17:58 | 2026 Apr 22 07:50:06 | 99.0756 | 0.00279 | 2.5296 | 172.1928 | 5.5056 | 14.21261 | – |
| 2026 Apr 24 17:59 | 2026 Apr 22 07:50:06 | 99.0756 | 0.00279 | 2.5296 | 172.1928 | 5.5056 | 14.21261 | – |
| 2026 Apr 23 17:57 | 2026 Apr 17 06:18:34 | 99.0752 | 0.00276 | 2.1828 | 187.7937 | 5.5056 | 14.21261 | – |
| 2026 Apr 22 17:57 | 2026 Apr 17 06:18:34 | 99.0752 | 0.00276 | 2.1828 | 187.7937 | 5.5056 | 14.21261 | – |
| 2026 Apr 21 17:57 | 2026 Apr 17 06:18:34 | 99.0752 | 0.00276 | 2.1828 | 187.7937 | 5.5056 | 14.21261 | – |
| 2026 Apr 20 17:57 | 2026 Apr 17 06:18:34 | 99.0752 | 0.00276 | 2.1828 | 187.7937 | 5.5056 | 14.21261 | – |
| 2026 Apr 19 17:58 | 2026 Apr 17 06:18:34 | 99.0752 | 0.00276 | 2.1828 | 187.7937 | 5.5056 | 14.21261 | – |
| 2026 Apr 18 17:56 | 2026 Apr 13 06:00:45 | 99.0750 | 0.00274 | 1.9080 | 199.2636 | 5.5056 | 14.21261 | – |
| 2026 Apr 16 17:57 | 2026 Apr 13 06:00:45 | 99.0750 | 0.00274 | 1.9080 | 199.2636 | 5.5056 | 14.21261 | – |
| 2026 Apr 14 17:57 | 2026 Apr 13 06:00:45 | 99.0750 | 0.00274 | 1.9080 | 199.2636 | 5.5056 | 14.21261 | – |
| 2026 Apr 13 17:57 | 2026 Apr 13 06:00:45 | 99.0750 | 0.00274 | 1.9080 | 199.2636 | 5.5056 | 14.21261 | – |
| 2026 Apr 12 17:57 | 2026 Apr 08 06:02:51 | 99.0748 | 0.00271 | 1.5657 | 214.0103 | 5.5056 | 14.21261 | – |
| 2026 Apr 11 17:57 | 2026 Apr 08 06:02:51 | 99.0748 | 0.00271 | 1.5657 | 214.0103 | 5.5056 | 14.21261 | – |
| 2026 Apr 10 17:58 | 2026 Apr 08 06:02:51 | 99.0748 | 0.00271 | 1.5657 | 214.0103 | 5.5056 | 14.21261 | – |
| 2026 Apr 09 18:01 | 2026 Apr 08 06:02:51 | 99.0748 | 0.00271 | 1.5657 | 214.0103 | 5.5056 | 14.21261 | – |
| 2026 Apr 08 17:57 | 2026 Apr 08 06:02:51 | 99.0748 | 0.00271 | 1.5657 | 214.0103 | 5.5056 | 14.21261 | – |
| 2026 Apr 07 17:57 | 2026 Apr 02 06:25:07 | 99.0748 | 0.00271 | 1.1559 | 231.8313 | 5.5056 | 14.21261 | – |
| 2026 Apr 06 17:57 | 2026 Apr 02 06:25:07 | 99.0748 | 0.00271 | 1.1559 | 231.8313 | 5.5056 | 14.21261 | – |